sensor_id;sensor_type;location;lat;lon;timestamp;pressure;altitude;pressure_sealevel;temperature;humidity
83483;BME280;73420;32.678;-85.380;2024-01-25T00:02:10;99201.55;;;29.41;31.32
83483;BME280;73420;32.678;-85.380;2024-01-25T00:04:36;99195.99;;;29.48;31.30
83483;BME280;73420;32.678;-85.380;2024-01-25T00:07:03;99196.21;;;29.45;31.29
83483;BME280;73420;32.678;-85.380;2024-01-25T00:09:26;99196.94;;;29.46;31.22
83483;BME280;73420;32.678;-85.380;2024-01-25T00:11:56;99194.32;;;29.16;31.12
83483;BME280;73420;32.678;-85.380;2024-01-25T00:14:16;99191.10;;;29.10;31.20
83483;BME280;73420;32.678;-85.380;2024-01-25T00:16:42;99188.82;;;29.56;31.20
83483;BME280;73420;32.678;-85.380;2024-01-25T00:19:07;99189.07;;;28.99;31.40
83483;BME280;73420;32.678;-85.380;2024-01-25T00:21:32;99188.26;;;28.94;31.56
83483;BME280;73420;32.678;-85.380;2024-01-25T00:23:59;99186.84;;;29.27;31.48
83483;BME280;73420;32.678;-85.380;2024-01-25T00:26:25;99187.82;;;29.26;31.38
83483;BME280;73420;32.678;-85.380;2024-01-25T00:28:48;99193.22;;;29.20;31.61
83483;BME280;73420;32.678;-85.380;2024-01-25T00:31:13;99192.50;;;29.44;31.58
83483;BME280;73420;32.678;-85.380;2024-01-25T00:33:39;99188.17;;;29.12;31.75
83483;BME280;73420;32.678;-85.380;2024-01-25T00:36:05;99181.99;;;29.20;31.54
83483;BME280;73420;32.678;-85.380;2024-01-25T00:38:30;99182.74;;;28.90;31.48
83483;BME280;73420;32.678;-85.380;2024-01-25T00:40:55;99183.18;;;29.40;31.70
83483;BME280;73420;32.678;-85.380;2024-01-25T00:43:20;99181.76;;;28.82;31.87
83483;BME280;73420;32.678;-85.380;2024-01-25T00:45:45;99176.49;;;28.75;31.87
83483;BME280;73420;32.678;-85.380;2024-01-25T00:48:12;99174.18;;;28.68;32.07
83483;BME280;73420;32.678;-85.380;2024-01-25T00:50:37;99171.47;;;28.85;32.14
83483;BME280;73420;32.678;-85.380;2024-01-25T00:53:01;99171.67;;;28.52;32.25
83483;BME280;73420;32.678;-85.380;2024-01-25T00:55:27;99178.69;;;28.60;32.56
83483;BME280;73420;32.678;-85.380;2024-01-25T00:57:52;99180.98;;;28.62;32.44
83483;BME280;73420;32.678;-85.380;2024-01-25T01:00:19;99182.02;;;28.39;32.55
83483;BME280;73420;32.678;-85.380;2024-01-25T01:02:44;99184.95;;;28.51;32.35
83483;BME280;73420;32.678;-85.380;2024-01-25T01:05:09;99185.72;;;28.50;32.28
83483;BME280;73420;32.678;-85.380;2024-01-25T01:07:34;99187.37;;;28.41;32.47
83483;BME280;73420;32.678;-85.380;2024-01-25T01:09:59;99197.15;;;28.57;32.28
83483;BME280;73420;32.678;-85.380;2024-01-25T01:12:26;99195.78;;;28.64;32.23
83483;BME280;73420;32.678;-85.380;2024-01-25T01:14:49;99192.68;;;28.66;32.16
83483;BME280;73420;32.678;-85.380;2024-01-25T01:17:15;99193.25;;;28.87;32.23
83483;BME280;73420;32.678;-85.380;2024-01-25T01:19:40;99181.43;;;28.41;32.57
83483;BME280;73420;32.678;-85.380;2024-01-25T01:22:05;99174.02;;;28.61;32.46
83483;BME280;73420;32.678;-85.380;2024-01-25T01:24:31;99175.13;;;28.15;32.68
83483;BME280;73420;32.678;-85.380;2024-01-25T01:26:56;99178.33;;;28.31;32.50
83483;BME280;73420;32.678;-85.380;2024-01-25T01:29:21;99183.96;;;28.63;32.43
83483;BME280;73420;32.678;-85.380;2024-01-25T01:31:47;99184.54;;;28.32;32.40
83483;BME280;73420;32.678;-85.380;2024-01-25T01:34:12;99186.62;;;28.86;32.44
83483;BME280;73420;32.678;-85.380;2024-01-25T01:36:38;99184.13;;;27.96;32.79
83483;BME280;73420;32.678;-85.380;2024-01-25T01:39:03;99188.00;;;28.18;32.75
83483;BME280;73420;32.678;-85.380;2024-01-25T01:41:28;99190.01;;;28.39;32.70
83483;BME280;73420;32.678;-85.380;2024-01-25T01:43:53;99188.40;;;28.29;32.47
83483;BME280;73420;32.678;-85.380;2024-01-25T01:46:26;99187.90;;;28.06;32.80
83483;BME280;73420;32.678;-85.380;2024-01-25T01:48:44;99185.78;;;28.44;32.46
83483;BME280;73420;32.678;-85.380;2024-01-25T01:51:10;99182.64;;;28.35;32.37
83483;BME280;73420;32.678;-85.380;2024-01-25T01:53:35;99181.40;;;28.27;32.54
83483;BME280;73420;32.678;-85.380;2024-01-25T01:56:00;99181.68;;;28.61;32.21
83483;BME280;73420;32.678;-85.380;2024-01-25T01:58:26;99174.91;;;28.45;31.98
83483;BME280;73420;32.678;-85.380;2024-01-25T02:00:54;99171.99;;;28.23;32.32
83483;BME280;73420;32.678;-85.380;2024-01-25T02:03:17;99174.81;;;28.21;32.38
83483;BME280;73420;32.678;-85.380;2024-01-25T02:05:42;99173.89;;;28.02;32.64
83483;BME280;73420;32.678;-85.380;2024-01-25T02:08:07;99168.37;;;27.84;32.84
83483;BME280;73420;32.678;-85.380;2024-01-25T02:10:32;99168.33;;;28.16;32.56
83483;BME280;73420;32.678;-85.380;2024-01-25T02:12:58;99171.65;;;28.35;32.42
83483;BME280;73420;32.678;-85.380;2024-01-25T02:15:23;99169.49;;;28.24;32.60
83483;BME280;73420;32.678;-85.380;2024-01-25T02:17:48;99171.28;;;27.87;33.13
83483;BME280;73420;32.678;-85.380;2024-01-25T02:20:13;99166.85;;;28.09;33.16
83483;BME280;73420;32.678;-85.380;2024-01-25T02:22:39;99165.71;;;27.88;33.04
83483;BME280;73420;32.678;-85.380;2024-01-25T02:25:05;99165.10;;;27.87;33.01
83483;BME280;73420;32.678;-85.380;2024-01-25T02:27:29;99163.24;;;27.54;33.17
83483;BME280;73420;32.678;-85.380;2024-01-25T02:29:55;99158.76;;;27.78;32.62
83483;BME280;73420;32.678;-85.380;2024-01-25T02:32:20;99150.96;;;27.83;32.83
83483;BME280;73420;32.678;-85.380;2024-01-25T02:34:45;99153.48;;;28.00;32.65
83483;BME280;73420;32.678;-85.380;2024-01-25T02:37:11;99159.97;;;28.27;32.56
83483;BME280;73420;32.678;-85.380;2024-01-25T02:39:36;99158.32;;;28.11;32.94
83483;BME280;73420;32.678;-85.380;2024-01-25T02:42:01;99157.56;;;27.61;32.89
83483;BME280;73420;32.678;-85.380;2024-01-25T02:44:27;99158.30;;;28.11;32.81
83483;BME280;73420;32.678;-85.380;2024-01-25T02:46:52;99164.67;;;28.11;32.69
83483;BME280;73420;32.678;-85.380;2024-01-25T02:49:19;99167.08;;;28.16;32.81
83483;BME280;73420;32.678;-85.380;2024-01-25T02:51:42;99165.44;;;27.61;32.72
83483;BME280;73420;32.678;-85.380;2024-01-25T02:54:07;99170.38;;;27.93;32.67
83483;BME280;73420;32.678;-85.380;2024-01-25T02:56:33;99176.18;;;27.96;33.09
83483;BME280;73420;32.678;-85.380;2024-01-25T02:58:58;99174.69;;;27.71;33.06
83483;BME280;73420;32.678;-85.380;2024-01-25T03:01:27;99178.05;;;28.06;32.96
83483;BME280;73420;32.678;-85.380;2024-01-25T03:03:49;99178.02;;;27.51;33.00
83483;BME280;73420;32.678;-85.380;2024-01-25T03:06:14;99181.13;;;27.65;33.52
83483;BME280;73420;32.678;-85.380;2024-01-25T03:08:39;99176.40;;;28.07;32.82
83483;BME280;73420;32.678;-85.380;2024-01-25T03:11:04;99175.63;;;28.36;32.63
83483;BME280;73420;32.678;-85.380;2024-01-25T03:13:30;99181.63;;;27.21;33.50
83483;BME280;73420;32.678;-85.380;2024-01-25T03:15:55;99186.15;;;27.26;33.24
83483;BME280;73420;32.678;-85.380;2024-01-25T03:18:20;99183.43;;;27.93;32.82
83483;BME280;73420;32.678;-85.380;2024-01-25T03:20:45;99188.25;;;27.84;32.57
83483;BME280;73420;32.678;-85.380;2024-01-25T03:23:11;99189.87;;;28.01;32.56
83483;BME280;73420;32.678;-85.380;2024-01-25T03:25:40;99191.22;;;27.83;32.87
83483;BME280;73420;32.678;-85.380;2024-01-25T03:28:02;99196.99;;;27.92;32.69
83483;BME280;73420;32.678;-85.380;2024-01-25T03:30:27;99197.21;;;27.82;32.48
83483;BME280;73420;32.678;-85.380;2024-01-25T03:32:52;99196.61;;;28.16;32.29
83483;BME280;73420;32.678;-85.380;2024-01-25T03:35:18;99201.99;;;27.86;32.32
83483;BME280;73420;32.678;-85.380;2024-01-25T03:37:43;99206.08;;;27.76;32.46
83483;BME280;73420;32.678;-85.380;2024-01-25T03:40:09;99208.19;;;27.71;32.35
83483;BME280;73420;32.678;-85.380;2024-01-25T03:42:33;99207.07;;;28.08;32.32
83483;BME280;73420;32.678;-85.380;2024-01-25T03:44:59;99214.92;;;27.88;32.55
83483;BME280;73420;32.678;-85.380;2024-01-25T03:47:24;99217.62;;;27.79;32.09
83483;BME280;73420;32.678;-85.380;2024-01-25T03:49:50;99218.64;;;28.30;32.00
83483;BME280;73420;32.678;-85.380;2024-01-25T03:52:15;99217.45;;;28.28;31.90
83483;BME280;73420;32.678;-85.380;2024-01-25T03:54:40;99225.28;;;28.37;31.90
83483;BME280;73420;32.678;-85.380;2024-01-25T03:57:06;99225.24;;;27.76;31.91
83483;BME280;73420;32.678;-85.380;2024-01-25T03:59:31;99226.88;;;28.52;31.61
83483;BME280;73420;32.678;-85.380;2024-01-25T04:01:56;99225.60;;;28.47;31.59
83483;BME280;73420;32.678;-85.380;2024-01-25T04:04:21;99228.39;;;28.67;31.37
83483;BME280;73420;32.678;-85.380;2024-01-25T04:06:47;99234.97;;;28.31;31.30
83483;BME280;73420;32.678;-85.380;2024-01-25T04:09:12;99238.65;;;28.82;31.18
83483;BME280;73420;32.678;-85.380;2024-01-25T04:11:38;99229.82;;;28.34;31.42
83483;BME280;73420;32.678;-85.380;2024-01-25T04:14:05;99228.81;;;28.68;31.33
83483;BME280;73420;32.678;-85.380;2024-01-25T04:16:28;99222.80;;;28.40;31.14
83483;BME280;73420;32.678;-85.380;2024-01-25T04:18:53;99220.36;;;28.03;31.29
83483;BME280;73420;32.678;-85.380;2024-01-25T04:21:19;99221.15;;;28.56;31.38
83483;BME280;73420;32.678;-85.380;2024-01-25T04:23:44;99216.61;;;28.60;31.34
83483;BME280;73420;32.678;-85.380;2024-01-25T04:26:09;99215.79;;;28.27;31.18
83483;BME280;73420;32.678;-85.380;2024-01-25T04:28:35;99216.92;;;28.37;31.30
83483;BME280;73420;32.678;-85.380;2024-01-25T04:31:01;99219.20;;;28.44;31.31
83483;BME280;73420;32.678;-85.380;2024-01-25T04:33:25;99211.25;;;28.44;31.33
83483;BME280;73420;32.678;-85.380;2024-01-25T04:35:51;99209.55;;;28.28;31.16
83483;BME280;73420;32.678;-85.380;2024-01-25T04:38:16;99210.65;;;28.24;31.06
83483;BME280;73420;32.678;-85.380;2024-01-25T04:40:42;99208.43;;;28.11;31.24
83483;BME280;73420;32.678;-85.380;2024-01-25T04:43:07;99206.18;;;27.96;31.46
83483;BME280;73420;32.678;-85.380;2024-01-25T04:45:32;99205.96;;;28.32;31.31
83483;BME280;73420;32.678;-85.380;2024-01-25T04:47:58;99199.21;;;27.85;31.89
83483;BME280;73420;32.678;-85.380;2024-01-25T04:50:23;99199.89;;;28.07;31.72
83483;BME280;73420;32.678;-85.380;2024-01-25T04:52:48;99196.23;;;28.13;31.66
83483;BME280;73420;32.678;-85.380;2024-01-25T04:55:14;99198.62;;;28.57;31.38
83483;BME280;73420;32.678;-85.380;2024-01-25T04:57:39;99197.68;;;28.26;31.89
83483;BME280;73420;32.678;-85.380;2024-01-25T05:00:06;99192.57;;;28.01;31.87
83483;BME280;73420;32.678;-85.380;2024-01-25T05:02:33;99195.82;;;28.47;31.36
83483;BME280;73420;32.678;-85.380;2024-01-25T05:04:55;99189.35;;;27.62;32.05
83483;BME280;73420;32.678;-85.380;2024-01-25T05:07:20;99194.69;;;27.77;32.14
83483;BME280;73420;32.678;-85.380;2024-01-25T05:09:45;99186.58;;;27.79;32.28
83483;BME280;73420;32.678;-85.380;2024-01-25T05:12:11;99178.59;;;28.17;32.47
83483;BME280;73420;32.678;-85.380;2024-01-25T05:14:36;99177.45;;;28.33;32.22
83483;BME280;73420;32.678;-85.380;2024-01-25T05:17:01;99170.59;;;28.16;32.37
83483;BME280;73420;32.678;-85.380;2024-01-25T05:19:27;99176.74;;;28.28;32.27
83483;BME280;73420;32.678;-85.380;2024-01-25T05:21:52;99182.85;;;27.71;33.18
83483;BME280;73420;32.678;-85.380;2024-01-25T05:24:17;99197.80;;;26.62;36.41
83483;BME280;73420;32.678;-85.380;2024-01-25T05:26:48;99199.65;;;25.76;37.90
83483;BME280;73420;32.678;-85.380;2024-01-25T05:29:08;99189.81;;;26.04;36.72
83483;BME280;73420;32.678;-85.380;2024-01-25T05:31:33;99191.07;;;25.78;42.15
83483;BME280;73420;32.678;-85.380;2024-01-25T05:33:59;99176.79;;;25.08;40.03
83483;BME280;73420;32.678;-85.380;2024-01-25T05:36:24;99182.77;;;24.95;42.93
83483;BME280;73420;32.678;-85.380;2024-01-25T05:38:55;99188.80;;;25.06;41.25
83483;BME280;73420;32.678;-85.380;2024-01-25T05:41:15;99187.90;;;24.70;40.59
83483;BME280;73420;32.678;-85.380;2024-01-25T05:43:40;99197.77;;;24.71;41.31
83483;BME280;73420;32.678;-85.380;2024-01-25T05:46:05;99207.31;;;24.02;44.38
83483;BME280;73420;32.678;-85.380;2024-01-25T05:48:31;99229.67;;;23.55;43.47
83483;BME280;73420;32.678;-85.380;2024-01-25T05:50:58;99227.71;;;23.35;46.59
83483;BME280;73420;32.678;-85.380;2024-01-25T05:53:21;99213.41;;;23.73;45.26
83483;BME280;73420;32.678;-85.380;2024-01-25T05:55:47;99216.43;;;23.69;46.39
83483;BME280;73420;32.678;-85.380;2024-01-25T05:58:12;99219.05;;;23.56;45.92
83483;BME280;73420;32.678;-85.380;2024-01-25T06:00:37;99210.29;;;23.51;45.40
83483;BME280;73420;32.678;-85.380;2024-01-25T06:03:08;99208.71;;;24.10;42.40
83483;BME280;73420;32.678;-85.380;2024-01-25T06:05:28;99183.33;;;24.51;41.61
83483;BME280;73420;32.678;-85.380;2024-01-25T06:07:53;99179.90;;;24.43;40.84
83483;BME280;73420;32.678;-85.380;2024-01-25T06:10:19;99186.76;;;24.76;40.40
83483;BME280;73420;32.678;-85.380;2024-01-25T06:12:44;99178.60;;;24.93;40.20
83483;BME280;73420;32.678;-85.380;2024-01-25T06:15:10;99174.25;;;25.02;39.82
83483;BME280;73420;32.678;-85.380;2024-01-25T06:17:35;99172.11;;;24.50;41.04
83483;BME280;73420;32.678;-85.380;2024-01-25T06:20:02;99160.31;;;24.85;39.60
83483;BME280;73420;32.678;-85.380;2024-01-25T06:22:26;99153.36;;;24.96;39.08
83483;BME280;73420;32.678;-85.380;2024-01-25T06:24:51;99144.88;;;24.65;38.63
83483;BME280;73420;32.678;-85.380;2024-01-25T06:27:18;99146.76;;;25.01;38.55
83483;BME280;73420;32.678;-85.380;2024-01-25T06:29:42;99152.12;;;24.94;38.74
83483;BME280;73420;32.678;-85.380;2024-01-25T06:32:07;99158.99;;;24.48;38.89
83483;BME280;73420;32.678;-85.380;2024-01-25T06:34:32;99156.59;;;24.74;39.12
83483;BME280;73420;32.678;-85.380;2024-01-25T06:36:58;99151.83;;;24.68;38.58
83483;BME280;73420;32.678;-85.380;2024-01-25T06:39:28;99146.84;;;24.96;38.56
83483;BME280;73420;32.678;-85.380;2024-01-25T06:41:48;99144.61;;;24.61;38.48
83483;BME280;73420;32.678;-85.380;2024-01-25T06:44:14;99143.63;;;24.65;38.72
83483;BME280;73420;32.678;-85.380;2024-01-25T06:46:39;99144.89;;;24.85;38.45
83483;BME280;73420;32.678;-85.380;2024-01-25T06:49:05;99145.74;;;25.25;38.26
83483;BME280;73420;32.678;-85.380;2024-01-25T06:51:30;99138.55;;;25.19;38.43
83483;BME280;73420;32.678;-85.380;2024-01-25T06:53:55;99129.01;;;25.04;38.44
83483;BME280;73420;32.678;-85.380;2024-01-25T06:56:21;99125.46;;;25.22;38.16
83483;BME280;73420;32.678;-85.380;2024-01-25T06:58:47;99127.40;;;25.01;38.12
83483;BME280;73420;32.678;-85.380;2024-01-25T07:01:12;99135.99;;;24.99;38.38
83483;BME280;73420;32.678;-85.380;2024-01-25T07:03:39;99132.37;;;24.75;38.05
83483;BME280;73420;32.678;-85.380;2024-01-25T07:06:04;99130.08;;;24.83;37.49
83483;BME280;73420;32.678;-85.380;2024-01-25T07:08:28;99115.03;;;25.11;37.35
83483;BME280;73420;32.678;-85.380;2024-01-25T07:10:54;99117.29;;;25.14;37.59
83483;BME280;73420;32.678;-85.380;2024-01-25T07:13:19;99108.40;;;24.88;37.58
83483;BME280;73420;32.678;-85.380;2024-01-25T07:15:45;99103.32;;;25.39;37.74
83483;BME280;73420;32.678;-85.380;2024-01-25T07:18:11;99107.85;;;25.19;37.49
83483;BME280;73420;32.678;-85.380;2024-01-25T07:20:35;99121.95;;;25.10;37.24
83483;BME280;73420;32.678;-85.380;2024-01-25T07:23:00;99122.02;;;25.40;37.12
83483;BME280;73420;32.678;-85.380;2024-01-25T07:25:26;99126.75;;;25.88;36.85
83483;BME280;73420;32.678;-85.380;2024-01-25T07:27:53;99127.37;;;25.81;36.65
83483;BME280;73420;32.678;-85.380;2024-01-25T07:30:17;99122.73;;;26.17;36.26
83483;BME280;73420;32.678;-85.380;2024-01-25T07:32:42;99127.66;;;26.27;36.23
83483;BME280;73420;32.678;-85.380;2024-01-25T07:35:07;99121.68;;;26.20;36.05
83483;BME280;73420;32.678;-85.380;2024-01-25T07:37:33;99124.52;;;26.55;35.89
83483;BME280;73420;32.678;-85.380;2024-01-25T07:40:04;99121.25;;;26.58;35.84
83483;BME280;73420;32.678;-85.380;2024-01-25T07:42:23;99135.49;;;26.27;35.83
83483;BME280;73420;32.678;-85.380;2024-01-25T07:44:48;99154.99;;;26.31;35.88
83483;BME280;73420;32.678;-85.380;2024-01-25T07:47:14;99176.94;;;26.37;35.62
83483;BME280;73420;32.678;-85.380;2024-01-25T07:49:41;99192.37;;;26.27;35.79
83483;BME280;73420;32.678;-85.380;2024-01-25T07:52:05;99183.14;;;26.41;35.72
83483;BME280;73420;32.678;-85.380;2024-01-25T07:54:30;99140.84;;;26.49;35.23
83483;BME280;73420;32.678;-85.380;2024-01-25T07:56:56;99113.27;;;26.28;35.73
83483;BME280;73420;32.678;-85.380;2024-01-25T07:59:21;99099.38;;;26.73;35.52
83483;BME280;73420;32.678;-85.380;2024-01-25T08:01:46;99102.90;;;26.53;35.56
83483;BME280;73420;32.678;-85.380;2024-01-25T08:04:12;99107.76;;;26.30;35.47
83483;BME280;73420;32.678;-85.380;2024-01-25T08:06:37;99099.34;;;26.56;35.24
83483;BME280;73420;32.678;-85.380;2024-01-25T08:09:03;99088.73;;;26.31;35.43
83483;BME280;73420;32.678;-85.380;2024-01-25T08:11:28;99081.68;;;26.79;35.07
83483;BME280;73420;32.678;-85.380;2024-01-25T08:13:53;99079.32;;;26.87;35.17
83483;BME280;73420;32.678;-85.380;2024-01-25T08:16:19;99092.04;;;26.76;34.94
83483;BME280;73420;32.678;-85.380;2024-01-25T08:18:44;99095.79;;;26.67;35.19
83483;BME280;73420;32.678;-85.380;2024-01-25T08:21:11;99095.00;;;26.75;35.14
83483;BME280;73420;32.678;-85.380;2024-01-25T08:23:34;99086.99;;;26.70;34.78
83483;BME280;73420;32.678;-85.380;2024-01-25T08:26:00;99075.55;;;26.80;34.96
83483;BME280;73420;32.678;-85.380;2024-01-25T08:28:25;99073.90;;;26.50;34.75
83483;BME280;73420;32.678;-85.380;2024-01-25T08:30:50;99077.16;;;26.81;34.59
83483;BME280;73420;32.678;-85.380;2024-01-25T08:33:16;99087.23;;;26.73;35.04
83483;BME280;73420;32.678;-85.380;2024-01-25T08:35:41;99091.14;;;26.83;34.99
83483;BME280;73420;32.678;-85.380;2024-01-25T08:38:07;99076.28;;;26.99;34.45
83483;BME280;73420;32.678;-85.380;2024-01-25T08:40:32;99073.44;;;26.67;34.59
83483;BME280;73420;32.678;-85.380;2024-01-25T08:42:57;99084.56;;;26.96;34.61
83483;BME280;73420;32.678;-85.380;2024-01-25T08:45:23;99114.81;;;26.58;34.90
83483;BME280;73420;32.678;-85.380;2024-01-25T08:47:48;99134.40;;;26.75;34.83
83483;BME280;73420;32.678;-85.380;2024-01-25T08:50:13;99143.84;;;26.70;35.10
83483;BME280;73420;32.678;-85.380;2024-01-25T08:52:39;99137.02;;;26.58;34.57
83483;BME280;73420;32.678;-85.380;2024-01-25T08:55:04;99107.19;;;26.75;34.53
83483;BME280;73420;32.678;-85.380;2024-01-25T08:57:29;99081.77;;;26.63;34.90
83483;BME280;73420;32.678;-85.380;2024-01-25T08:59:55;99094.39;;;26.89;34.87
83483;BME280;73420;32.678;-85.380;2024-01-25T09:02:20;99093.72;;;26.92;34.65
83483;BME280;73420;32.678;-85.380;2024-01-25T09:04:47;99087.22;;;26.98;34.60
83483;BME280;73420;32.678;-85.380;2024-01-25T09:07:11;99072.05;;;26.95;34.67
83483;BME280;73420;32.678;-85.380;2024-01-25T09:09:36;99083.13;;;27.21;34.66
83483;BME280;73420;32.678;-85.380;2024-01-25T09:12:01;99068.16;;;27.45;34.65
83483;BME280;73420;32.678;-85.380;2024-01-25T09:14:27;99064.22;;;27.06;34.61
83483;BME280;73420;32.678;-85.380;2024-01-25T09:16:54;99052.66;;;26.71;34.63
83483;BME280;73420;32.678;-85.380;2024-01-25T09:19:17;99052.55;;;26.84;34.69
83483;BME280;73420;32.678;-85.380;2024-01-25T09:21:43;99062.86;;;26.74;33.94
83483;BME280;73420;32.678;-85.380;2024-01-25T09:24:08;99069.14;;;26.62;34.01
83483;BME280;73420;32.678;-85.380;2024-01-25T09:26:33;99079.93;;;27.01;33.94
83483;BME280;73420;32.678;-85.380;2024-01-25T09:29:02;99089.20;;;27.03;33.60
83483;BME280;73420;32.678;-85.380;2024-01-25T09:31:25;99079.61;;;26.85;33.78
83483;BME280;73420;32.678;-85.380;2024-01-25T09:33:50;99078.96;;;26.60;34.27
83483;BME280;73420;32.678;-85.380;2024-01-25T09:36:17;99085.75;;;26.74;34.09
83483;BME280;73420;32.678;-85.380;2024-01-25T09:38:40;99078.24;;;26.25;34.11
83483;BME280;73420;32.678;-85.380;2024-01-25T09:41:08;99072.66;;;26.81;34.12
83483;BME280;73420;32.678;-85.380;2024-01-25T09:43:31;99073.96;;;27.09;33.92
83483;BME280;73420;32.678;-85.380;2024-01-25T09:45:56;99088.35;;;26.90;34.08
83483;BME280;73420;32.678;-85.380;2024-01-25T09:48:22;99095.70;;;26.98;33.83
83483;BME280;73420;32.678;-85.380;2024-01-25T09:50:48;99084.19;;;26.93;33.90
83483;BME280;73420;32.678;-85.380;2024-01-25T09:53:23;99079.37;;;27.04;33.87
83483;BME280;73420;32.678;-85.380;2024-01-25T09:55:38;99071.54;;;27.11;33.91
83483;BME280;73420;32.678;-85.380;2024-01-25T09:58:03;99053.19;;;27.06;33.73
83483;BME280;73420;32.678;-85.380;2024-01-25T10:00:27;99049.98;;;26.70;34.06
83483;BME280;73420;32.678;-85.380;2024-01-25T10:02:53;99049.79;;;26.71;34.07
83483;BME280;73420;32.678;-85.380;2024-01-25T10:05:23;99036.55;;;26.72;34.05
83483;BME280;73420;32.678;-85.380;2024-01-25T10:07:45;99002.10;;;26.67;34.16
83483;BME280;73420;32.678;-85.380;2024-01-25T10:10:10;98988.33;;;26.70;34.39
83483;BME280;73420;32.678;-85.380;2024-01-25T10:12:35;98995.77;;;26.43;34.50
83483;BME280;73420;32.678;-85.380;2024-01-25T10:15:00;99008.13;;;26.53;34.24
83483;BME280;73420;32.678;-85.380;2024-01-25T10:17:25;99011.68;;;26.46;34.29
83483;BME280;73420;32.678;-85.380;2024-01-25T10:19:50;99023.90;;;26.92;34.02
83483;BME280;73420;32.678;-85.380;2024-01-25T10:22:16;98995.79;;;26.87;33.99
83483;BME280;73420;32.678;-85.380;2024-01-25T10:24:41;98993.49;;;26.58;34.22
83483;BME280;73420;32.678;-85.380;2024-01-25T10:27:07;98984.70;;;26.46;34.23
83483;BME280;73420;32.678;-85.380;2024-01-25T10:29:32;98962.87;;;26.27;34.45
83483;BME280;73420;32.678;-85.380;2024-01-25T10:31:57;98960.66;;;26.23;34.75
83483;BME280;73420;32.678;-85.380;2024-01-25T10:34:23;98960.79;;;26.24;34.57
83483;BME280;73420;32.678;-85.380;2024-01-25T10:36:48;98969.03;;;26.44;34.61
83483;BME280;73420;32.678;-85.380;2024-01-25T10:39:13;98988.80;;;26.18;35.09
83483;BME280;73420;32.678;-85.380;2024-01-25T10:41:39;99013.84;;;26.58;34.97
83483;BME280;73420;32.678;-85.380;2024-01-25T10:44:04;99030.46;;;26.33;34.81
83483;BME280;73420;32.678;-85.380;2024-01-25T10:46:29;99036.31;;;25.46;39.94
83483;BME280;73420;32.678;-85.380;2024-01-25T10:48:58;99032.67;;;24.39;40.20
83483;BME280;73420;32.678;-85.380;2024-01-25T10:51:20;99030.62;;;24.83;38.60
83483;BME280;73420;32.678;-85.380;2024-01-25T10:53:46;99055.45;;;24.16;39.03
83483;BME280;73420;32.678;-85.380;2024-01-25T10:56:10;99044.56;;;24.37;39.21
83483;BME280;73420;32.678;-85.380;2024-01-25T10:58:36;99018.61;;;24.18;38.72
83483;BME280;73420;32.678;-85.380;2024-01-25T11:01:01;99000.59;;;24.56;38.33
83483;BME280;73420;32.678;-85.380;2024-01-25T11:03:27;99020.72;;;24.63;38.13
83483;BME280;73420;32.678;-85.380;2024-01-25T11:05:54;99028.51;;;25.19;37.91
83483;BME280;73420;32.678;-85.380;2024-01-25T11:08:18;99019.55;;;25.16;37.52
83483;BME280;73420;32.678;-85.380;2024-01-25T11:10:42;99006.32;;;25.51;36.90
83483;BME280;73420;32.678;-85.380;2024-01-25T11:13:13;99008.83;;;25.44;36.48
83483;BME280;73420;32.678;-85.380;2024-01-25T11:15:34;99014.35;;;25.76;36.37
83483;BME280;73420;32.678;-85.380;2024-01-25T11:18:01;99003.08;;;25.46;36.15
83483;BME280;73420;32.678;-85.380;2024-01-25T11:20:25;98994.54;;;25.72;35.91
83483;BME280;73420;32.678;-85.380;2024-01-25T11:25:19;99008.97;;;26.11;35.47
83483;BME280;73420;32.678;-85.380;2024-01-25T11:27:40;99021.17;;;26.18;35.35
83483;BME280;73420;32.678;-85.380;2024-01-25T11:30:09;99026.67;;;26.28;35.25
83483;BME280;73420;32.678;-85.380;2024-01-25T11:32:31;99035.58;;;26.21;35.12
83483;BME280;73420;32.678;-85.380;2024-01-25T11:34:58;99040.56;;;26.61;34.92
83483;BME280;73420;32.678;-85.380;2024-01-25T11:37:23;99044.34;;;26.69;34.86
83483;BME280;73420;32.678;-85.380;2024-01-25T11:39:47;99038.32;;;26.63;34.76
83483;BME280;73420;32.678;-85.380;2024-01-25T11:42:12;99033.53;;;26.46;34.77
83483;BME280;73420;32.678;-85.380;2024-01-25T11:44:37;99023.75;;;26.46;34.92
83483;BME280;73420;32.678;-85.380;2024-01-25T11:47:03;99012.83;;;26.69;34.72
83483;BME280;73420;32.678;-85.380;2024-01-25T11:49:28;99006.18;;;26.53;34.48
83483;BME280;73420;32.678;-85.380;2024-01-25T11:51:53;99012.98;;;26.57;34.60
83483;BME280;73420;32.678;-85.380;2024-01-25T11:54:19;99019.72;;;26.93;34.38
83483;BME280;73420;32.678;-85.380;2024-01-25T11:56:44;99034.13;;;26.72;34.23
83483;BME280;73420;32.678;-85.380;2024-01-25T11:59:10;99045.76;;;26.64;34.34
83483;BME280;73420;32.678;-85.380;2024-01-25T12:01:35;99035.66;;;26.76;34.30
83483;BME280;73420;32.678;-85.380;2024-01-25T12:04:00;99031.00;;;26.79;33.88
83483;BME280;73420;32.678;-85.380;2024-01-25T12:06:31;99027.26;;;26.66;34.02
83483;BME280;73420;32.678;-85.380;2024-01-25T12:08:51;99030.57;;;26.84;34.21
83483;BME280;73420;32.678;-85.380;2024-01-25T12:11:16;99039.26;;;26.84;34.17
83483;BME280;73420;32.678;-85.380;2024-01-25T12:13:42;99042.95;;;26.70;33.93
83483;BME280;73420;32.678;-85.380;2024-01-25T12:16:08;99038.18;;;26.98;33.94
83483;BME280;73420;32.678;-85.380;2024-01-25T12:18:32;99026.22;;;26.99;33.96
83483;BME280;73420;32.678;-85.380;2024-01-25T12:20:59;99020.10;;;26.88;33.86
83483;BME280;73420;32.678;-85.380;2024-01-25T12:23:23;99025.25;;;26.86;34.11
83483;BME280;73420;32.678;-85.380;2024-01-25T12:25:48;99024.29;;;26.94;33.92
83483;BME280;73420;32.678;-85.380;2024-01-25T12:28:14;99015.34;;;26.85;33.92
83483;BME280;73420;32.678;-85.380;2024-01-25T12:30:39;99015.57;;;26.92;33.90
83483;BME280;73420;32.678;-85.380;2024-01-25T12:33:04;99012.16;;;26.98;33.81